Hermitage, Missouri
Current Conditions -  °F | °C
As of 11:55 PM on Saturday 25 Oct 2014 (Local Time) from KH21 Reporting Station
Haze Haze  
Wind Chill: 59°   Ceiling: Unl
Heat Index: 59°   Visibility: 4mi
Dew Point: 57°   Wind: 0mph
Humidity: 94%   Direction: NA
Pressure: 30.02"   Gusts: NA
Location:  37.94°N, 93.32°W
Report Text: KH21 260455Z AUTO 00000KT 4SM BR CLR 15/14 A3002 RMK AO2
Loading
Personal Weather Stations






























Interactive Weather Map
Tropical Storm Tracking
New forecast layout! Learn more

10-Day Weather Forecast

Advertisements
Track Severe Weather on mobile